createdAt,value
2023-02-08T00:00:57.995Z,19.58
2023-02-08T00:03:25.132Z,19.17
2023-02-08T00:05:52.167Z,21.00
2023-02-08T00:08:19.267Z,20.77
2023-02-08T00:10:46.325Z,18.77
2023-02-08T00:13:13.397Z,20.88
2023-02-08T00:15:45.175Z,20.25
2023-02-08T00:18:12.774Z,19.00
2023-02-08T00:20:41.943Z,17.88
2023-02-08T00:23:09.188Z,18.40
2023-02-08T00:25:36.836Z,18.88
2023-02-08T00:28:04.866Z,17.92
2023-02-08T00:30:32.752Z,16.85
2023-02-08T00:33:01.544Z,17.55
2023-02-08T00:35:29.204Z,16.85
2023-02-08T00:37:56.809Z,16.52
2023-02-08T00:40:24.474Z,16.48
2023-02-08T00:42:51.692Z,16.35
2023-02-08T00:45:19.059Z,14.70
2023-02-08T00:47:46.156Z,14.52
2023-02-08T00:50:13.271Z,14.00
2023-02-08T00:52:40.462Z,13.93
2023-02-08T00:55:08.188Z,14.90
2023-02-08T00:57:35.974Z,13.18
2023-02-08T01:00:04.693Z,12.35
2023-02-08T01:02:31.759Z,11.82
2023-02-08T01:04:58.940Z,11.20
2023-02-08T01:07:26.068Z,11.85
2023-02-08T01:09:53.130Z,9.98
2023-02-08T01:12:20.292Z,9.85
2023-02-08T01:14:47.488Z,9.88
2023-02-08T01:17:14.616Z,9.02
2023-02-08T01:19:42.644Z,8.30
2023-02-08T01:22:09.758Z,8.38
2023-02-08T01:24:36.863Z,8.60
2023-02-08T01:27:04.101Z,8.20
2023-02-08T01:29:31.432Z,7.45
2023-02-08T01:31:59.336Z,7.38
2023-02-08T01:34:29.952Z,7.88
2023-02-08T01:36:57.151Z,8.32
2023-02-08T01:39:24.199Z,7.60
2023-02-08T01:41:52.076Z,6.97
2023-02-08T01:44:19.138Z,7.00
2023-02-08T01:46:51.795Z,7.35
2023-02-08T01:49:30.344Z,7.45
2023-02-08T01:52:17.717Z,7.25
2023-02-08T01:55:06.951Z,6.75
2023-02-08T01:57:34.093Z,7.23
2023-02-08T02:00:12.489Z,7.13
2023-02-08T02:02:45.921Z,7.80
2023-02-08T02:05:14.194Z,8.25
2023-02-08T02:07:41.872Z,8.25
2023-02-08T02:10:26.535Z,8.05
2023-02-08T02:12:57.320Z,8.52
2023-02-08T02:15:24.557Z,8.98
2023-02-08T02:17:51.735Z,9.52
2023-02-08T02:20:57.342Z,9.38
2023-02-08T02:23:55.279Z,10.38
2023-02-08T02:26:32.313Z,11.32
2023-02-08T02:29:11.571Z,11.38
2023-02-08T02:31:54.443Z,10.93
2023-02-08T02:34:42.882Z,10.85
2023-02-08T02:37:28.612Z,11.85
2023-02-08T02:40:24.315Z,11.45
2023-02-08T02:43:25.266Z,11.80
2023-02-08T02:46:09.134Z,11.32
2023-02-08T02:49:01.012Z,11.80
2023-02-08T02:51:46.494Z,11.70
2023-02-08T02:54:38.835Z,12.15
2023-02-08T02:57:10.805Z,12.25
2023-02-08T02:59:39.605Z,11.07
2023-02-08T03:02:06.803Z,11.75
2023-02-08T03:04:33.773Z,13.10
2023-02-08T03:07:19.137Z,12.32
2023-02-08T03:10:23.268Z,11.80
2023-02-08T03:12:58.999Z,11.70
2023-02-08T03:15:37.856Z,13.20
2023-02-08T03:18:20.386Z,13.27
2023-02-08T03:21:06.011Z,12.63
2023-02-08T03:23:39.623Z,12.07
2023-02-08T03:26:47.717Z,13.35
2023-02-08T03:29:17.270Z,14.38
2023-02-08T03:32:01.325Z,14.88
2023-02-08T03:35:00.353Z,15.77
2023-02-08T03:37:32.053Z,15.43
2023-02-08T03:40:14.346Z,16.50
2023-02-08T03:42:42.259Z,16.23
2023-02-08T03:45:18.713Z,15.27
2023-02-08T03:47:49.714Z,16.52
2023-02-08T03:50:18.647Z,17.83
2023-02-08T03:52:50.879Z,18.58
2023-02-08T03:55:28.013Z,18.45
2023-02-08T03:57:58.891Z,17.25
2023-02-08T04:00:26.278Z,16.95
2023-02-08T04:03:20.334Z,18.75
2023-02-08T04:05:48.195Z,17.40
2023-02-08T04:08:15.332Z,17.45
2023-02-08T04:10:42.870Z,17.80
2023-02-08T04:13:10.157Z,17.83
2023-02-08T04:15:37.328Z,18.10
2023-02-08T04:18:04.574Z,17.92
2023-02-08T04:20:32.297Z,17.80
2023-02-08T04:22:59.410Z,16.65
2023-02-08T04:25:26.955Z,16.60
2023-02-08T04:27:54.896Z,16.58
2023-02-08T04:30:22.034Z,16.63
2023-02-08T04:32:49.227Z,15.95
2023-02-08T04:35:16.341Z,16.58
2023-02-08T04:37:43.495Z,16.48
2023-02-08T04:40:11.423Z,16.00
2023-02-08T04:42:38.589Z,17.35
2023-02-08T04:45:05.912Z,15.18
2023-02-08T04:47:33.062Z,16.63
2023-02-08T04:50:00.088Z,17.00
2023-02-08T04:52:27.228Z,17.50
2023-02-08T04:54:54.476Z,16.75
2023-02-08T04:57:21.640Z,17.63
2023-02-08T04:59:48.697Z,17.80
2023-02-08T05:02:15.778Z,16.65
2023-02-08T05:04:42.775Z,15.80
2023-02-08T05:07:09.929Z,18.13
2023-02-08T05:09:37.069Z,18.38
2023-02-08T05:12:04.599Z,19.30
2023-02-08T05:14:31.618Z,17.73
2023-02-08T05:16:58.684Z,19.42
2023-02-08T05:19:26.699Z,18.15
2023-02-08T05:21:53.832Z,18.25
2023-02-08T05:24:20.870Z,19.65
2023-02-08T05:26:48.027Z,18.45
2023-02-08T05:29:15.561Z,18.60
2023-02-08T05:31:42.860Z,18.90
2023-02-08T05:34:10.107Z,19.85
2023-02-08T05:36:37.146Z,18.23
2023-02-08T05:39:05.096Z,18.35
2023-02-08T05:41:32.213Z,18.92
2023-02-08T05:43:59.421Z,17.95
2023-02-08T05:46:26.621Z,18.88
2023-02-08T05:48:53.750Z,19.38
2023-02-08T05:51:21.387Z,18.77
2023-02-08T05:53:48.543Z,19.58
2023-02-08T05:56:15.617Z,19.80
2023-02-08T05:58:42.812Z,19.45
2023-02-08T06:01:11.663Z,19.83
2023-02-08T06:03:39.748Z,18.48
2023-02-08T06:06:07.219Z,19.67
2023-02-08T06:08:34.369Z,19.33
2023-02-08T06:11:01.378Z,21.17
2023-02-08T06:13:29.477Z,21.15
2023-02-08T06:15:56.991Z,19.70
2023-02-08T06:18:24.180Z,19.13
2023-02-08T06:20:54.885Z,18.70
2023-02-08T06:23:23.349Z,19.50
2023-02-08T06:25:50.519Z,18.73
2023-02-08T06:28:17.954Z,18.75
2023-02-08T06:30:45.091Z,18.85
2023-02-08T06:33:13.918Z,18.90
2023-02-08T06:35:52.441Z,18.38
2023-02-08T06:38:20.095Z,17.70
2023-02-08T06:40:48.093Z,20.00
2023-02-08T06:43:16.193Z,19.48
2023-02-08T06:45:46.077Z,20.25
2023-02-08T06:48:14.043Z,20.88
2023-02-08T06:50:41.581Z,18.92
2023-02-08T06:53:08.826Z,21.20
2023-02-08T06:55:35.957Z,20.65
2023-02-08T06:58:03.055Z,20.05
2023-02-08T07:00:30.651Z,20.80
2023-02-08T07:02:59.100Z,21.25
2023-02-08T07:05:26.096Z,19.60
2023-02-08T07:07:53.743Z,19.85
2023-02-08T07:10:20.885Z,20.58
2023-02-08T07:12:48.124Z,20.85
2023-02-08T07:15:15.520Z,20.58
2023-02-08T07:17:42.610Z,20.70
2023-02-08T07:20:12.243Z,20.85
2023-02-08T07:22:40.450Z,21.55
2023-02-08T07:25:09.093Z,20.95
2023-02-08T07:27:37.081Z,20.45
2023-02-08T07:30:05.219Z,20.60
2023-02-08T07:32:34.675Z,19.60
2023-02-08T07:35:02.338Z,19.20
2023-02-08T07:37:29.470Z,19.33
2023-02-08T07:39:56.866Z,19.48
2023-02-08T07:42:24.013Z,21.13
2023-02-08T07:45:06.331Z,21.48
2023-02-08T07:47:33.456Z,20.90
2023-02-08T07:50:00.698Z,21.52
2023-02-08T07:52:27.785Z,20.33
2023-02-08T07:54:54.826Z,22.23
2023-02-08T07:57:22.367Z,21.02
2023-02-08T07:59:49.548Z,21.13
2023-02-08T08:02:16.666Z,21.85
2023-02-08T08:04:43.825Z,21.42
2023-02-08T08:07:11.091Z,20.50
2023-02-08T08:09:38.341Z,22.40
2023-02-08T08:12:05.769Z,20.55
2023-02-08T08:14:32.907Z,20.50
2023-02-08T08:17:00.084Z,19.10
2023-02-08T08:19:27.348Z,18.48
2023-02-08T08:21:54.517Z,19.73
2023-02-08T08:24:21.825Z,20.42
2023-02-08T08:26:48.972Z,19.27
2023-02-08T08:29:16.138Z,18.83
2023-02-08T08:31:44.134Z,18.27
2023-02-08T08:34:11.369Z,18.20
2023-02-08T08:36:38.458Z,18.23
2023-02-08T08:39:05.534Z,17.80
2023-02-08T08:41:32.664Z,16.58
2023-02-08T08:43:59.769Z,16.65
2023-02-08T08:46:26.900Z,16.60
2023-02-08T08:48:54.022Z,17.63
2023-02-08T08:51:21.138Z,17.38
2023-02-08T08:53:48.259Z,16.25
2023-02-08T08:56:15.344Z,17.05
2023-02-08T08:58:43.836Z,16.38
2023-02-08T09:01:11.200Z,16.45
2023-02-08T09:03:38.291Z,16.52
2023-02-08T09:06:05.642Z,16.80
2023-02-08T09:08:32.711Z,15.93
2023-02-08T09:11:09.043Z,14.70
2023-02-08T09:13:36.915Z,15.13
2023-02-08T09:16:14.138Z,15.07
2023-02-08T09:18:41.966Z,15.57
2023-02-08T09:21:19.253Z,14.63
2023-02-08T09:23:47.930Z,15.23
2023-02-08T09:26:17.054Z,16.00
2023-02-08T09:28:44.508Z,15.25
2023-02-08T09:31:27.963Z,15.27
2023-02-08T09:33:58.174Z,16.25
2023-02-08T09:36:28.041Z,16.52
2023-02-08T09:39:00.472Z,16.40
2023-02-08T09:41:50.057Z,16.65
2023-02-08T09:44:32.225Z,16.25
2023-02-08T09:47:06.228Z,16.70
2023-02-08T09:49:44.123Z,16.80
2023-02-08T09:52:16.523Z,17.90
2023-02-08T09:54:59.849Z,17.73
2023-02-08T09:57:31.828Z,17.77
2023-02-08T10:00:15.065Z,16.70
2023-02-08T10:02:44.542Z,16.25
2023-02-08T10:05:19.848Z,16.52
2023-02-08T10:07:47.616Z,15.18
2023-02-08T10:10:31.338Z,15.38
2023-02-08T10:13:33.017Z,15.40
2023-02-08T10:16:38.464Z,16.17
2023-02-08T10:19:44.292Z,16.10
2023-02-08T10:22:26.356Z,16.50
2023-02-08T10:25:30.848Z,17.25
2023-02-08T10:28:06.437Z,19.98
2023-02-08T10:30:44.982Z,22.15
2023-02-08T10:33:37.587Z,21.98
2023-02-08T10:36:15.353Z,22.38
2023-02-08T10:38:46.687Z,24.27
2023-02-08T10:41:23.484Z,25.98
2023-02-08T10:44:32.396Z,26.67
2023-02-08T10:47:09.246Z,24.88
2023-02-08T10:49:50.334Z,24.25
2023-02-08T10:52:17.564Z,25.08
2023-02-08T10:54:44.737Z,23.08
2023-02-08T10:57:26.116Z,23.42
2023-02-08T11:00:06.638Z,22.60
2023-02-08T11:02:39.708Z,21.67
2023-02-08T11:05:14.612Z,20.92
2023-02-08T11:07:41.965Z,20.35
2023-02-08T11:10:21.110Z,18.27
2023-02-08T11:13:19.802Z,17.70
2023-02-08T11:15:48.529Z,18.65
2023-02-08T11:18:36.046Z,18.27
2023-02-08T11:21:06.610Z,21.25
2023-02-08T11:23:36.999Z,18.70
2023-02-08T11:26:38.456Z,19.58
2023-02-08T11:29:14.670Z,18.52
2023-02-08T11:32:06.633Z,19.83
2023-02-08T11:34:35.387Z,19.02
2023-02-08T11:37:14.055Z,18.35
2023-02-08T11:39:45.382Z,18.30
2023-02-08T11:42:24.887Z,21.05
2023-02-08T11:44:53.950Z,19.45
2023-02-08T11:47:33.193Z,19.88
2023-02-08T11:50:07.732Z,21.10
2023-02-08T11:52:39.482Z,21.20
2023-02-08T11:55:18.772Z,21.30
2023-02-08T11:57:52.045Z,18.83
2023-02-08T12:00:21.558Z,20.52
2023-02-08T12:02:51.257Z,20.92
2023-02-08T12:05:24.741Z,19.73
2023-02-08T12:08:08.544Z,20.38
2023-02-08T12:10:51.077Z,21.65
2023-02-08T12:13:23.733Z,20.70
2023-02-08T12:15:58.647Z,20.35
2023-02-08T12:19:07.473Z,18.02
2023-02-08T12:21:39.901Z,16.83
2023-02-08T12:24:39.919Z,17.10
2023-02-08T12:27:38.982Z,20.45
2023-02-08T12:30:45.375Z,17.85
2023-02-08T12:33:40.154Z,18.25
2023-02-08T12:36:28.648Z,18.67
2023-02-08T12:39:33.272Z,17.67
2023-02-08T12:42:04.982Z,18.45
2023-02-08T12:44:53.491Z,18.98
2023-02-08T12:47:34.626Z,19.73
2023-02-08T12:50:09.405Z,20.10
2023-02-08T12:52:43.077Z,19.98
2023-02-08T12:55:23.879Z,18.85
2023-02-08T12:57:54.797Z,18.48
2023-02-08T13:00:26.082Z,17.73
2023-02-08T13:03:07.125Z,17.38
2023-02-08T13:05:39.851Z,17.48
2023-02-08T13:08:55.975Z,16.80
2023-02-08T13:12:16.637Z,16.92
2023-02-08T13:14:46.246Z,17.35
2023-02-08T13:17:49.189Z,16.98
2023-02-08T13:20:20.576Z,17.75
2023-02-08T13:22:49.900Z,18.23
2023-02-08T13:25:37.399Z,17.50
2023-02-08T13:28:11.792Z,18.15
2023-02-08T13:30:40.898Z,17.27
2023-02-08T13:33:32.151Z,15.50
2023-02-08T13:35:59.812Z,16.60
2023-02-08T13:38:36.212Z,16.85
2023-02-08T13:41:20.023Z,15.57
2023-02-08T13:43:53.471Z,14.23
2023-02-08T13:46:23.321Z,15.98
2023-02-08T13:48:57.028Z,14.93
2023-02-08T13:51:33.049Z,15.30
2023-02-08T13:54:00.520Z,16.13
2023-02-08T13:56:41.596Z,16.95
2023-02-08T13:59:36.699Z,15.80
2023-02-08T14:02:23.272Z,14.35
2023-02-08T14:04:52.937Z,15.00
2023-02-08T14:07:45.234Z,14.75
2023-02-08T14:10:42.029Z,14.88
2023-02-08T14:13:21.520Z,15.60
2023-02-08T14:16:26.879Z,14.55
2023-02-08T14:18:56.750Z,15.15
2023-02-08T14:21:46.536Z,13.65
2023-02-08T14:24:28.824Z,14.25
2023-02-08T14:27:22.134Z,15.48
2023-02-08T14:30:18.572Z,14.85
2023-02-08T14:32:49.089Z,14.35
2023-02-08T14:35:16.155Z,15.95
2023-02-08T14:37:44.617Z,16.80
2023-02-08T14:40:25.160Z,15.13
2023-02-08T14:43:04.904Z,15.77
2023-02-08T14:45:33.551Z,16.60
2023-02-08T14:48:21.666Z,16.35
2023-02-08T14:51:16.738Z,15.73
2023-02-08T14:53:54.512Z,15.98
2023-02-08T14:56:30.890Z,16.50
2023-02-08T14:59:03.018Z,16.10
2023-02-08T15:01:51.590Z,16.73
2023-02-08T15:04:18.760Z,16.85
2023-02-08T15:07:16.258Z,17.35
2023-02-08T15:09:45.443Z,16.92
2023-02-08T15:12:33.966Z,17.60
2023-02-08T15:15:03.608Z,17.67
2023-02-08T15:17:49.125Z,16.77
2023-02-08T15:20:28.782Z,17.77
2023-02-08T15:23:17.095Z,17.33
2023-02-08T15:25:44.661Z,17.83
2023-02-08T15:28:20.958Z,17.98
2023-02-08T15:30:58.731Z,16.42
2023-02-08T15:33:26.780Z,19.05
2023-02-08T15:36:07.792Z,17.45
2023-02-08T15:38:38.810Z,17.67
2023-02-08T15:41:14.303Z,18.40
2023-02-08T15:43:43.231Z,17.73
2023-02-08T15:46:22.786Z,18.35
2023-02-08T15:48:51.223Z,17.90
2023-02-08T15:51:23.274Z,18.58
2023-02-08T15:53:56.137Z,18.95
2023-02-08T15:56:40.043Z,17.92
2023-02-08T15:59:20.040Z,18.58
2023-02-08T16:01:48.430Z,18.38
2023-02-08T16:04:16.162Z,19.02
2023-02-08T16:06:57.388Z,18.33
2023-02-08T16:09:28.701Z,18.65
2023-02-08T16:12:00.226Z,17.90
2023-02-08T16:14:30.361Z,19.92
2023-02-08T16:16:58.969Z,19.88
2023-02-08T16:19:29.791Z,20.55
2023-02-08T16:22:23.215Z,20.92
2023-02-08T16:24:51.113Z,20.42
2023-02-08T16:27:27.740Z,19.40
2023-02-08T16:29:55.414Z,19.48
2023-02-08T16:32:33.162Z,19.65
2023-02-08T16:35:11.175Z,18.33
2023-02-08T16:37:38.522Z,19.02
2023-02-08T16:40:27.056Z,19.40
2023-02-08T16:43:21.860Z,20.42
2023-02-08T16:46:10.719Z,21.27
2023-02-08T16:48:46.029Z,20.98
2023-02-08T16:51:16.970Z,22.90
2023-02-08T16:53:44.193Z,21.00
2023-02-08T16:56:11.753Z,20.98
2023-02-08T16:58:39.428Z,20.95
2023-02-08T17:01:06.616Z,22.58
2023-02-08T17:03:33.999Z,22.95
2023-02-08T17:06:01.550Z,23.15
2023-02-08T17:08:28.792Z,21.83
2023-02-08T17:10:59.237Z,23.73
2023-02-08T17:13:29.866Z,22.20
2023-02-08T17:18:25.963Z,23.42
2023-02-08T17:20:59.566Z,23.63
2023-02-08T17:23:27.062Z,23.98
2023-02-08T17:25:54.213Z,23.60
2023-02-08T17:28:21.844Z,25.13
2023-02-08T17:30:50.011Z,25.50
2023-02-08T17:33:20.191Z,26.10
2023-02-08T17:35:51.459Z,24.67
2023-02-08T17:38:20.250Z,24.63
2023-02-08T17:40:48.011Z,25.17
2023-02-08T17:43:15.226Z,24.92
2023-02-08T17:45:44.177Z,26.70
2023-02-08T17:48:13.726Z,26.73
2023-02-08T17:50:44.216Z,26.13
2023-02-08T17:53:11.648Z,25.30
2023-02-08T17:55:42.335Z,27.80
2023-02-08T17:58:09.555Z,28.65
2023-02-08T18:00:36.838Z,28.23
2023-02-08T18:03:04.100Z,27.15
2023-02-08T18:05:31.305Z,28.35
2023-02-08T18:07:58.507Z,28.23
2023-02-08T18:10:26.542Z,29.30
2023-02-08T18:12:53.748Z,29.15
2023-02-08T18:15:22.186Z,30.80
2023-02-08T18:17:53.023Z,29.70
2023-02-08T18:20:20.234Z,30.38
2023-02-08T18:22:47.357Z,30.77
2023-02-08T18:25:16.294Z,29.48
2023-02-08T18:27:43.605Z,31.38
2023-02-08T18:30:12.121Z,29.75
2023-02-08T18:32:39.839Z,29.88
2023-02-08T18:35:08.183Z,29.70
2023-02-08T18:37:36.558Z,29.63
2023-02-08T18:40:07.005Z,29.80
2023-02-08T18:42:36.045Z,32.28
2023-02-08T18:45:05.142Z,28.90
2023-02-08T18:47:32.753Z,30.38
2023-02-08T18:50:00.005Z,28.92
2023-02-08T18:52:27.291Z,31.83
2023-02-08T18:54:54.391Z,29.73
2023-02-08T18:57:21.584Z,31.13
2023-02-08T18:59:48.680Z,31.42
2023-02-08T19:02:22.014Z,29.33
2023-02-08T19:04:49.650Z,30.75
2023-02-08T19:07:16.761Z,33.72
2023-02-08T19:09:44.369Z,31.25
2023-02-08T19:12:15.642Z,33.00
2023-02-08T19:14:43.944Z,32.38
2023-02-08T19:17:14.309Z,32.65
2023-02-08T19:19:42.543Z,32.50
2023-02-08T19:22:09.724Z,32.60
2023-02-08T19:24:36.949Z,32.47
2023-02-08T19:27:04.175Z,32.35
2023-02-08T19:29:33.442Z,31.65
2023-02-08T19:32:00.805Z,32.60
2023-02-08T19:34:28.001Z,35.08
2023-02-08T19:36:55.546Z,33.03
2023-02-08T19:39:26.386Z,33.08
2023-02-08T19:41:54.358Z,32.78
2023-02-08T19:44:22.047Z,34.58
2023-02-08T19:46:52.422Z,33.35
2023-02-08T19:51:47.184Z,34.45
2023-02-08T19:54:17.639Z,33.03
2023-02-08T19:56:45.796Z,34.25
2023-02-08T19:59:21.929Z,33.30
2023-02-08T20:01:49.692Z,33.97
2023-02-08T20:04:16.881Z,32.38
2023-02-08T20:06:45.306Z,34.38
2023-02-08T20:09:13.334Z,32.63
2023-02-08T20:11:55.867Z,32.75
2023-02-08T20:14:23.840Z,34.28
2023-02-08T20:16:50.943Z,32.38
2023-02-08T20:19:18.294Z,32.95
2023-02-08T20:21:45.581Z,32.80
2023-02-08T20:24:12.832Z,33.70
2023-02-08T20:26:42.729Z,33.70
2023-02-08T20:29:10.629Z,34.75
2023-02-08T20:31:41.162Z,33.83
2023-02-08T20:34:11.584Z,33.58
2023-02-08T20:36:45.114Z,33.95
2023-02-08T20:39:19.166Z,34.45
2023-02-08T20:41:47.662Z,33.40
2023-02-08T20:44:17.313Z,34.33
2023-02-08T20:46:44.851Z,34.55
2023-02-08T20:49:15.545Z,34.65
2023-02-08T20:51:43.569Z,32.92
2023-02-08T20:54:11.786Z,33.30
2023-02-08T20:56:39.592Z,33.40
2023-02-08T20:59:09.194Z,35.50
2023-02-08T21:01:36.812Z,32.55
2023-02-08T21:04:05.336Z,31.83
2023-02-08T21:06:35.034Z,34.35
2023-02-08T21:09:12.567Z,34.33
2023-02-08T21:11:39.870Z,31.88
2023-02-08T21:14:07.987Z,31.25
2023-02-08T21:16:35.204Z,32.92
2023-02-08T21:19:02.383Z,33.47
2023-02-08T21:21:29.576Z,32.10
2023-02-08T21:23:58.117Z,33.92
2023-02-08T21:26:26.494Z,32.47
2023-02-08T21:28:55.632Z,32.78
2023-02-08T21:31:24.236Z,32.63
2023-02-08T21:33:52.271Z,31.33
2023-02-08T21:36:24.504Z,31.10
2023-02-08T21:38:51.939Z,32.63
2023-02-08T21:41:21.945Z,31.02
2023-02-08T21:43:49.976Z,30.52
2023-02-08T21:46:17.843Z,31.77
2023-02-08T21:49:04.107Z,29.90
2023-02-08T21:51:49.671Z,30.13
2023-02-08T21:54:31.855Z,29.10
2023-02-08T21:57:00.113Z,30.63
2023-02-08T21:59:27.780Z,30.77
2023-02-08T22:01:55.186Z,30.27
2023-02-08T22:04:22.380Z,30.30
2023-02-08T22:06:49.553Z,29.98
2023-02-08T22:09:18.077Z,31.65
2023-02-08T22:11:45.547Z,32.63
2023-02-08T22:14:13.780Z,31.10
2023-02-08T22:16:41.567Z,30.98
2023-02-08T22:19:09.107Z,31.55
2023-02-08T22:21:36.317Z,31.65
2023-02-08T22:24:03.420Z,31.80
2023-02-08T22:26:30.669Z,30.95
2023-02-08T22:28:57.797Z,30.45
2023-02-08T22:31:25.626Z,31.52
2023-02-08T22:33:53.946Z,31.17
2023-02-08T22:36:21.481Z,30.73
2023-02-08T22:38:48.595Z,30.60
2023-02-08T22:41:17.634Z,29.25
2023-02-08T22:43:45.449Z,31.65
2023-02-08T22:46:13.191Z,30.98
2023-02-08T22:48:40.439Z,30.40
2023-02-08T22:51:17.381Z,31.67
2023-02-08T22:53:45.400Z,29.45
2023-02-08T22:56:16.959Z,28.80
2023-02-08T22:58:44.435Z,30.45
2023-02-08T23:01:13.562Z,28.60
2023-02-08T23:03:40.961Z,29.23
2023-02-08T23:06:10.082Z,28.42
2023-02-08T23:08:37.217Z,30.52
2023-02-08T23:11:06.482Z,28.17
2023-02-08T23:13:36.015Z,30.27
2023-02-08T23:16:03.384Z,30.15
2023-02-08T23:18:30.598Z,29.55
2023-02-08T23:20:57.724Z,28.23
2023-02-08T23:23:24.876Z,30.20
2023-02-08T23:25:51.975Z,29.10
2023-02-08T23:28:19.149Z,28.95
2023-02-08T23:30:46.530Z,28.30
2023-02-08T23:33:13.926Z,28.45
2023-02-08T23:35:41.972Z,29.23
2023-02-08T23:38:09.852Z,29.50
2023-02-08T23:40:37.036Z,28.65
2023-02-08T23:43:04.418Z,28.85
2023-02-08T23:45:31.709Z,29.58
2023-02-08T23:47:58.861Z,30.98
2023-02-08T23:50:26.553Z,29.45
2023-02-08T23:52:56.685Z,29.83
2023-02-08T23:55:24.505Z,31.67
2023-02-08T23:57:51.592Z,29.42
